Time;durP1;ratioP1;P1;durP2;ratioP2;P2;SDS_P1;SDS_P2;PMS_P1;PMS_P2;Temp;Humidity;BMP_temperature;BMP_pressure;BME280_temperature;BME280_humidity;BME280_pressure;Samples;Min_cycle;Max_cycle;Signal;HPM_P1;HPM_P2
2021/01/05 00:00:12;;;;;;;22.10;16.13;;;2.90;85.80;;;;;;5089710;28;20047;-77
2021/01/05 00:02:38;;;;;;;22.07;17.03;;;2.90;85.70;;;;;;5070055;28;20118;-78
2021/01/05 00:05:05;;;;;;;24.03;17.70;;;3.00;86.40;;;;;;5071835;28;20021;-78
2021/01/05 00:07:31;;;;;;;21.57;17.13;;;3.10;85.90;;;;;;5090294;28;20091;-78
2021/01/05 00:09:57;;;;;;;21.37;16.33;;;3.10;85.20;;;;;;5074287;28;20096;-78
2021/01/05 00:12:22;;;;;;;20.60;16.73;;;3.10;85.60;;;;;;5090794;28;20123;-78
2021/01/05 00:14:48;;;;;;;21.30;17.30;;;3.10;86.00;;;;;;5090351;28;20024;-78
2021/01/05 00:17:16;;;;;;;22.73;17.20;;;3.00;85.20;;;;;;5090571;28;20497;-78
2021/01/05 00:19:42;;;;;;;20.67;16.30;;;2.90;85.40;;;;;;5089994;28;20377;-78
2021/01/05 00:22:07;;;;;;;20.27;16.10;;;2.90;85.60;;;;;;5092100;28;20039;-78
2021/01/05 00:24:34;;;;;;;23.10;17.27;;;2.90;85.50;;;;;;5090104;28;20036;-77
2021/01/05 00:27:00;;;;;;;22.97;17.33;;;3.00;85.70;;;;;;5090727;28;20025;-77
2021/01/05 00:29:26;;;;;;;21.17;16.63;;;3.00;85.60;;;;;;5090514;28;20039;-78
2021/01/05 00:32:04;;;;;;;24.43;18.43;;;3.00;85.30;;;;;;5090244;28;20078;-78
2021/01/05 00:34:30;;;;;;;23.47;18.27;;;3.00;85.50;;;;;;5090470;28;20085;-76
2021/01/05 00:36:57;;;;;;;22.43;17.70;;;2.90;85.50;;;;;;5090358;28;20056;-78
2021/01/05 00:39:22;;;;;;;23.70;18.10;;;3.00;85.40;;;;;;5090097;28;20081;-78
2021/01/05 00:41:49;;;;;;;21.90;17.27;;;2.90;85.40;;;;;;5089440;28;20114;-78
2021/01/05 00:44:14;;;;;;;22.23;17.47;;;2.90;85.50;;;;;;5090760;28;20056;-78
2021/01/05 00:46:40;;;;;;;22.60;17.37;;;3.00;85.70;;;;;;5072812;28;20060;-78
2021/01/05 00:49:06;;;;;;;23.63;17.77;;;3.10;85.80;;;;;;5073620;28;20038;-79
2021/01/05 00:51:31;;;;;;;20.53;16.23;;;3.10;85.30;;;;;;5089682;28;20032;-77
2021/01/05 00:53:57;;;;;;;22.90;17.43;;;3.10;85.20;;;;;;5056919;28;20028;-78
2021/01/05 00:56:22;;;;;;;23.27;17.07;;;3.00;85.20;;;;;;5090608;28;20035;-78
2021/01/05 00:58:48;;;;;;;23.00;17.77;;;3.00;85.50;;;;;;5089445;28;20035;-78
2021/01/05 01:01:14;;;;;;;23.07;17.70;;;3.00;85.40;;;;;;5090416;28;20044;-77
2021/01/05 01:03:40;;;;;;;22.87;17.27;;;3.10;85.60;;;;;;5091525;28;20024;-78
2021/01/05 01:06:06;;;;;;;24.00;17.50;;;3.10;85.50;;;;;;5092331;28;20081;-80
2021/01/05 01:08:32;;;;;;;21.33;17.17;;;3.10;85.50;;;;;;5090353;28;20024;-78
2021/01/05 01:10:58;;;;;;;20.90;15.47;;;3.20;85.20;;;;;;5092661;28;20145;-80
2021/01/05 01:13:24;;;;;;;22.03;17.00;;;3.10;85.00;;;;;;5074034;28;20471;-79
2021/01/05 01:15:50;;;;;;;21.97;16.97;;;3.10;85.50;;;;;;5089335;28;20028;-79
2021/01/05 01:18:15;;;;;;;22.77;17.23;;;3.10;85.60;;;;;;5090296;28;20032;-79
2021/01/05 01:20:41;;;;;;;20.93;17.00;;;3.10;85.30;;;;;;5074000;28;20036;-79
2021/01/05 01:23:06;;;;;;;23.43;17.93;;;3.10;85.20;;;;;;5089993;28;20060;-79
2021/01/05 01:25:32;;;;;;;21.27;17.00;;;3.00;85.10;;;;;;5088953;28;20387;-77
2021/01/05 01:27:58;;;;;;;22.60;17.17;;;3.00;85.10;;;;;;5090869;28;20486;-79
2021/01/05 01:30:23;;;;;;;23.67;18.37;;;3.00;85.40;;;;;;5090105;28;20059;-79
2021/01/05 01:32:49;;;;;;;22.03;17.17;;;3.10;85.50;;;;;;5090506;28;20077;-79
2021/01/05 01:35:15;;;;;;;22.90;18.00;;;3.10;85.30;;;;;;5056482;28;20043;-79
2021/01/05 01:37:41;;;;;;;22.33;17.60;;;3.20;85.30;;;;;;5088797;28;20035;-79
2021/01/05 01:40:09;;;;;;;24.07;18.43;;;3.10;85.00;;;;;;5073130;28;20036;-79
2021/01/05 01:42:35;;;;;;;22.63;17.63;;;3.00;85.10;;;;;;5089153;28;20074;-78
2021/01/05 01:45:01;;;;;;;24.33;18.73;;;3.00;85.30;;;;;;5089632;28;20491;-79
2021/01/05 01:47:41;;;;;;;24.37;18.33;;;3.00;85.50;;;;;;5091234;28;20060;-78
2021/01/05 01:50:11;;;;;;;23.40;18.07;;;3.10;85.80;;;;;;5090952;28;20132;-77
2021/01/05 01:52:58;;;;;;;24.27;18.50;;;3.20;85.80;;;;;;5088928;28;20605;-78
2021/01/05 01:55:47;;;;;;;24.80;18.27;;;3.30;85.10;;;;;;5091086;28;20028;-78
2021/01/05 01:58:41;;;;;;;24.37;18.10;;;3.20;85.00;;;;;;5088770;28;20024;-77
2021/01/05 02:01:21;;;;;;;24.08;18.02;;;3.20;85.00;;;;;;5091137;28;20048;-77
2021/01/05 02:04:17;;;;;;;23.67;17.60;;;3.20;85.00;;;;;;5090725;28;20107;-78
2021/01/05 02:07:09;;;;;;;25.17;18.60;;;3.20;84.80;;;;;;5089888;28;20032;-78
2021/01/05 02:09:49;;;;;;;27.63;19.98;;;3.10;85.00;;;;;;5089023;28;20035;-76
2021/01/05 02:12:29;;;;;;;29.43;17.80;;;3.10;84.90;;;;;;5089567;28;20464;-77
2021/01/05 02:15:09;;;;;;;23.53;17.67;;;3.10;84.90;;;;;;5087764;28;20164;-77
2021/01/05 02:17:47;;;;;;;24.23;18.03;;;3.10;84.90;;;;;;5090078;28;20028;-75
2021/01/05 02:20:23;;;;;;;23.73;17.83;;;3.10;85.00;;;;;;5090424;28;20111;-78
2021/01/05 02:23:20;;;;;;;23.93;17.53;;;3.10;85.10;;;;;;5089336;28;20035;-78
2021/01/05 02:25:49;;;;;;;24.70;16.90;;;3.10;85.20;;;;;;5092165;28;20024;-77
2021/01/05 02:28:16;;;;;;;26.70;19.03;;;3.10;85.10;;;;;;5093826;28;20077;-78
2021/01/05 02:30:49;;;;;;;25.60;19.13;;;3.10;84.80;;;;;;5092724;28;20575;-77
2021/01/05 02:33:36;;;;;;;25.90;18.88;;;3.10;84.90;;;;;;5094027;28;20472;-77
2021/01/05 02:36:44;;;;;;;25.67;18.00;;;3.10;84.70;;;;;;5093805;28;20084;-78
2021/01/05 02:39:28;;;;;;;26.83;17.57;;;3.10;84.80;;;;;;5092134;28;20521;-78
2021/01/05 02:42:09;;;;;;;26.57;19.20;;;3.10;85.20;;;;;;5092834;28;20379;-78
2021/01/05 02:44:44;;;;;;;26.07;18.90;;;3.10;84.60;;;;;;5091792;28;20032;-75
2021/01/05 02:47:35;;;;;;;24.70;18.77;;;3.10;84.60;;;;;;5092680;28;20031;-78
2021/01/05 02:50:21;;;;;;;27.40;18.80;;;3.20;84.70;;;;;;5093640;28;20024;-78
2021/01/05 02:53:11;;;;;;;26.73;18.57;;;3.20;84.80;;;;;;5091699;28;20032;-78
2021/01/05 02:56:11;;;;;;;25.97;18.73;;;3.20;84.70;;;;;;5093221;28;20566;-76
2021/01/05 02:59:11;;;;;;;25.67;19.23;;;3.20;84.40;;;;;;5091187;28;20036;-76
2021/01/05 03:01:56;;;;;;;24.03;17.73;;;3.20;84.70;;;;;;5092900;28;20127;-76
2021/01/05 03:04:21;;;;;;;26.50;17.73;;;3.20;84.60;;;;;;5093721;28;20040;-77
2021/01/05 03:07:08;;;;;;;25.07;18.37;;;3.20;84.70;;;;;;5091469;28;20027;-78
2021/01/05 03:09:53;;;;;;;26.97;19.57;;;3.30;84.70;;;;;;5091677;28;20019;-75
2021/01/05 03:12:36;;;;;;;25.20;18.10;;;3.20;84.80;;;;;;5078972;28;20020;-77
2021/01/05 03:15:08;;;;;;;;;;;3.20;84.60;;;;;;5091681;28;20043;-78
2021/01/05 03:17:37;;;;;;;27.17;18.27;;;3.20;84.60;;;;;;5092702;28;19950;-77
2021/01/05 03:20:44;;;;;;;27.70;18.93;;;3.10;84.50;;;;;;5092706;28;20035;-77
2021/01/05 03:23:12;;;;;;;29.17;19.07;;;3.00;84.90;;;;;;5090671;28;20028;-78
2021/01/05 03:25:41;;;;;;;27.47;19.07;;;3.00;85.10;;;;;;5090232;28;20031;-77
2021/01/05 03:28:10;;;;;;;29.60;20.07;;;3.10;85.30;;;;;;5081464;28;20487;-76
2021/01/05 03:30:47;;;;;;;30.83;19.50;;;3.20;85.60;;;;;;5092838;28;20028;-76
2021/01/05 03:33:13;;;;;;;28.50;19.73;;;3.20;85.60;;;;;;5093057;28;20024;-77
2021/01/05 03:35:39;;;;;;;31.57;21.03;;;3.20;84.90;;;;;;5091014;28;20058;-76
2021/01/05 03:38:04;;;;;;;33.70;21.80;;;3.10;85.30;;;;;;5092588;28;20401;-77
2021/01/05 03:40:30;;;;;;;31.53;21.30;;;3.10;85.40;;;;;;5091206;28;20062;-77
2021/01/05 03:42:56;;;;;;;33.77;21.80;;;3.00;85.70;;;;;;5091426;28;20036;-77
2021/01/05 03:45:26;;;;;;;34.67;22.43;;;3.00;85.70;;;;;;5072854;28;20186;-77
2021/01/05 03:47:52;;;;;;;33.10;22.17;;;3.10;85.80;;;;;;5091914;28;20032;-77
2021/01/05 03:50:18;;;;;;;33.77;22.47;;;3.00;85.70;;;;;;5091079;28;20036;-77
2021/01/05 03:52:44;;;;;;;33.77;22.50;;;3.00;85.90;;;;;;5090316;28;20111;-78
2021/01/05 03:55:11;;;;;;;32.50;22.10;;;3.10;86.00;;;;;;5091019;28;20410;-77
2021/01/05 03:57:37;;;;;;;33.87;21.87;;;3.20;86.30;;;;;;5092188;28;20024;-77
2021/01/05 04:00:08;;;;;;;32.10;21.67;;;3.30;86.10;;;;;;5090350;28;20062;-77
2021/01/05 04:02:34;;;;;;;34.37;23.23;;;3.20;85.70;;;;;;5091972;28;20100;-77
2021/01/05 04:05:00;;;;;;;32.33;21.93;;;3.20;85.70;;;;;;5090235;28;20091;-77
2021/01/05 04:07:26;;;;;;;31.67;21.17;;;3.20;85.50;;;;;;5074024;28;20407;-78
2021/01/05 04:09:52;;;;;;;34.23;22.67;;;3.10;85.80;;;;;;5090255;28;20044;-77
2021/01/05 04:12:18;;;;;;;31.20;20.87;;;3.10;85.80;;;;;;5092467;28;20073;-78
2021/01/05 04:14:44;;;;;;;29.67;20.37;;;3.20;86.10;;;;;;5089871;28;20052;-79
2021/01/05 04:17:09;;;;;;;31.53;20.90;;;3.30;85.90;;;;;;5090388;28;20063;-77
2021/01/05 04:19:35;;;;;;;27.33;19.23;;;3.20;85.50;;;;;;5091914;28;20034;-78
2021/01/05 04:22:01;;;;;;;29.57;20.93;;;3.20;85.80;;;;;;5090090;28;20101;-78
2021/01/05 04:24:26;;;;;;;30.93;21.83;;;3.40;86.10;;;;;;5090862;28;20123;-78
2021/01/05 04:26:52;;;;;;;29.37;20.27;;;3.50;86.00;;;;;;5089364;28;20055;-77
2021/01/05 04:29:17;;;;;;;30.20;21.30;;;3.40;85.90;;;;;;5090607;28;20031;-78
2021/01/05 04:31:44;;;;;;;32.77;22.03;;;3.50;85.30;;;;;;5089864;28;20028;-76
2021/01/05 04:34:13;;;;;;;31.53;21.03;;;3.40;85.30;;;;;;5092314;28;20027;-77
2021/01/05 04:36:39;;;;;;;31.00;20.93;;;3.30;85.30;;;;;;5091678;28;20085;-76
2021/01/05 04:39:06;;;;;;;31.33;21.23;;;3.20;85.50;;;;;;5091103;28;20032;-77
2021/01/05 04:41:42;;;;;;;34.27;22.40;;;3.10;85.50;;;;;;5092484;28;20096;-77
2021/01/05 04:44:11;;;;;;;32.87;22.10;;;3.20;86.30;;;;;;5090737;28;20077;-77
2021/01/05 04:46:51;;;;;;;32.30;21.80;;;3.20;85.90;;;;;;5089726;28;20031;-77
2021/01/05 04:49:26;;;;;;;33.30;20.83;;;3.10;86.00;;;;;;5090619;28;20369;-77
2021/01/05 04:52:09;;;;;;;34.40;22.40;;;3.10;85.80;;;;;;5090885;28;20026;-77
2021/01/05 04:55:02;;;;;;;31.03;21.33;;;3.10;86.00;;;;;;5089661;28;20024;-77
2021/01/05 04:57:30;;;;;;;33.13;21.63;;;3.00;85.70;;;;;;5091569;28;20481;-77
2021/01/05 05:00:14;;;;;;;38.87;23.33;;;3.10;86.20;;;;;;5090036;28;20055;-77
2021/01/05 05:02:48;;;;;;;33.30;21.70;;;3.20;86.60;;;;;;5089650;28;20024;-77
2021/01/05 05:05:30;;;;;;;30.90;20.77;;;3.20;86.10;;;;;;5090339;28;20031;-77
2021/01/05 05:08:20;;;;;;;33.53;22.17;;;3.30;85.90;;;;;;5090444;28;20035;-77
2021/01/05 05:10:56;;;;;;;35.20;22.23;;;3.20;85.70;;;;;;5089660;28;20372;-77
2021/01/05 05:13:40;;;;;;;33.60;21.53;;;3.20;85.70;;;;;;5090386;28;20391;-77
2021/01/05 05:16:28;;;;;;;33.83;22.07;;;3.10;85.80;;;;;;5090332;28;20050;-77
2021/01/05 05:19:48;;;;;;;35.83;22.77;;;3.00;85.80;;;;;;5090413;28;20024;-77
2021/01/05 05:22:38;;;;;;;38.43;23.97;;;3.10;85.90;;;;;;5083053;28;20063;-77
2021/01/05 05:25:10;;;;;;;33.57;21.50;;;3.00;85.80;;;;;;5090020;28;20019;-77
2021/01/05 05:27:39;;;;;;;36.95;23.00;;;3.10;86.20;;;;;;5089809;28;20383;-77
2021/01/05 05:30:12;;;;;;;33.70;21.67;;;3.10;86.20;;;;;;5088640;28;20039;-77
2021/01/05 05:33:03;;;;;;;32.33;20.90;;;3.20;86.30;;;;;;5091028;28;20530;-77
2021/01/05 05:35:57;;;;;;;32.73;21.03;;;3.20;86.10;;;;;;5066524;28;20131;-77
2021/01/05 05:38:34;;;;;;;;;;;3.30;86.30;;;;;;5091363;28;20141;-77
2021/01/05 05:41:18;;;;;;;32.60;20.57;;;3.20;85.50;;;;;;5089368;28;20006;-77
2021/01/05 05:44:18;;;;;;;32.37;21.30;;;3.10;85.50;;;;;;5089421;28;20085;-77
2021/01/05 05:46:50;;;;;;;34.47;22.30;;;3.10;85.90;;;;;;5090991;28;20099;-76
2021/01/05 05:49:31;;;;;;;34.73;21.80;;;3.10;86.00;;;;;;5089977;28;20384;-77
2021/01/05 05:51:59;;;;;;;34.00;21.30;;;3.20;85.90;;;;;;5088755;28;20428;-77
2021/01/05 05:54:25;;;;;;;34.93;22.57;;;3.10;85.80;;;;;;5070612;28;20021;-77
2021/01/05 05:57:18;;;;;;;34.47;22.53;;;3.20;85.80;;;;;;5052131;28;20021;-77
2021/01/05 05:59:49;;;;;;;35.78;22.33;;;3.10;85.70;;;;;;5072815;28;20205;-76
2021/01/05 06:02:19;;;;;;;35.97;22.17;;;3.20;85.80;;;;;;5073412;28;20111;-77
2021/01/05 06:04:44;;;;;;;31.33;20.10;;;3.20;86.00;;;;;;5084602;28;20055;-77
2021/01/05 06:07:11;;;;;;;33.67;22.27;;;3.30;85.80;;;;;;5094249;28;20495;-77
2021/01/05 06:09:37;;;;;;;35.47;22.03;;;3.30;85.60;;;;;;5060033;28;20031;-77
2021/01/05 06:12:05;;;;;;;37.83;23.43;;;3.30;85.20;;;;;;5075772;28;20227;-77
2021/01/05 06:14:31;;;;;;;32.17;21.07;;;3.20;85.20;;;;;;5093067;28;20027;-78
2021/01/05 06:16:56;;;;;;;35.87;21.13;;;3.20;85.70;;;;;;5092188;28;20040;-77
2021/01/05 06:19:22;;;;;;;37.60;22.63;;;3.30;85.90;;;;;;5093778;28;20097;-77
2021/01/05 06:21:47;;;;;;;35.53;22.50;;;3.40;85.70;;;;;;5064220;28;20035;-77
2021/01/05 06:24:13;;;;;;;41.27;23.27;;;3.40;85.20;;;;;;5104691;28;20024;-77
2021/01/05 06:26:39;;;;;;;40.53;22.87;;;3.50;85.30;;;;;;5070933;28;20054;-78
2021/01/05 06:29:04;;;;;;;35.17;22.33;;;3.50;85.60;;;;;;5105430;28;20062;-77
2021/01/05 06:31:30;;;;;;;41.63;24.10;;;3.60;85.40;;;;;;5103527;28;20036;-76
2021/01/05 06:33:56;;;;;;;38.63;23.53;;;3.50;85.00;;;;;;5092250;28;20103;-76
2021/01/05 06:36:22;;;;;;;40.80;24.23;;;3.40;85.30;;;;;;5075838;28;20471;-76
2021/01/05 06:38:48;;;;;;;37.67;23.03;;;3.30;85.40;;;;;;5075808;28;20024;-75
2021/01/05 06:41:14;;;;;;;41.90;24.07;;;3.30;85.60;;;;;;5075970;28;20032;-76
2021/01/05 06:43:40;;;;;;;38.70;23.23;;;3.30;85.70;;;;;;5072262;28;20472;-76
2021/01/05 06:46:06;;;;;;;43.07;24.77;;;3.30;85.70;;;;;;5072944;28;20445;-75
2021/01/05 06:48:31;;;;;;;39.33;23.10;;;3.40;86.20;;;;;;5072364;28;20170;-76
2021/01/05 06:50:57;;;;;;;37.27;22.70;;;3.30;85.80;;;;;;5083997;28;20119;-76
2021/01/05 06:53:22;;;;;;;42.67;24.43;;;3.40;86.00;;;;;;5074940;28;20486;-77
2021/01/05 06:55:48;;;;;;;39.10;23.87;;;3.50;86.00;;;;;;5092411;28;20031;-76
2021/01/05 06:58:14;;;;;;;38.23;23.43;;;3.60;85.80;;;;;;5075058;28;20028;-79
2021/01/05 07:00:39;;;;;;;42.43;24.43;;;3.50;85.20;;;;;;5092572;28;20052;-77
2021/01/05 07:03:06;;;;;;;42.07;24.70;;;3.40;85.00;;;;;;5075072;28;20028;-77
2021/01/05 07:05:31;;;;;;;39.67;23.30;;;3.40;85.60;;;;;;5092251;28;20039;-77
2021/01/05 07:07:57;;;;;;;43.70;24.53;;;3.40;85.70;;;;;;5092480;28;20024;-76
2021/01/05 07:10:23;;;;;;;40.47;23.63;;;3.50;85.80;;;;;;5093025;28;20036;-77
2021/01/05 07:12:49;;;;;;;42.90;24.43;;;3.50;85.50;;;;;;5092886;28;20032;-77
2021/01/05 07:15:17;;;;;;;39.10;24.10;;;3.40;85.30;;;;;;5092973;28;20106;-77
2021/01/05 07:17:43;;;;;;;42.90;24.73;;;3.40;85.60;;;;;;5092073;28;20425;-76
2021/01/05 07:20:10;;;;;;;40.53;23.87;;;3.40;85.50;;;;;;5074031;28;20032;-76
2021/01/05 07:22:36;;;;;;;45.00;25.20;;;3.40;85.70;;;;;;5093044;28;20095;-78
2021/01/05 07:25:03;;;;;;;43.33;24.70;;;3.40;85.80;;;;;;5092183;28;20115;-77
2021/01/05 07:27:29;;;;;;;45.87;24.97;;;3.30;85.40;;;;;;5092401;28;20035;-76
2021/01/05 07:29:54;;;;;;;43.70;26.37;;;3.30;85.70;;;;;;5090826;28;20036;-77
2021/01/05 07:32:20;;;;;;;45.20;25.70;;;3.40;85.70;;;;;;5093591;28;20164;-76
2021/01/05 07:34:46;;;;;;;44.23;25.13;;;3.30;85.70;;;;;;5091787;28;20126;-78
2021/01/05 07:37:18;;;;;;;42.83;23.97;;;3.30;86.00;;;;;;5091339;28;20092;-78
2021/01/05 07:39:44;;;;;;;42.90;24.07;;;3.20;85.80;;;;;;5090765;28;20103;-78
2021/01/05 07:42:31;;;;;;;44.93;25.10;;;3.20;86.10;;;;;;5089585;28;20028;-78
2021/01/05 07:44:59;;;;;;;44.43;24.47;;;3.30;86.30;;;;;;5091396;28;20023;-78
2021/01/05 07:47:43;;;;;;;41.50;24.10;;;3.40;86.50;;;;;;5071092;28;20028;-78
2021/01/05 07:50:20;;;;;;;43.50;24.57;;;3.50;86.20;;;;;;5088137;28;20032;-78
2021/01/05 07:52:46;;;;;;;40.40;24.07;;;3.40;85.80;;;;;;5091543;28;20028;-78
2021/01/05 07:55:25;;;;;;;43.00;23.57;;;3.40;86.00;;;;;;5089842;28;20093;-78
2021/01/05 07:57:53;;;;;;;41.63;24.23;;;3.60;86.50;;;;;;5091270;28;20081;-78
2021/01/05 08:00:22;;;;;;;43.13;24.20;;;3.80;86.20;;;;;;5091358;28;20044;-78
2021/01/05 08:02:47;;;;;;;42.87;23.27;;;3.70;85.20;;;;;;5091184;28;20024;-77
2021/01/05 08:05:15;;;;;;;43.90;26.77;;;3.60;85.30;;;;;;5090372;28;20027;-78
2021/01/05 08:07:41;;;;;;;43.07;25.60;;;3.50;85.10;;;;;;5074688;28;20025;-77
2021/01/05 08:10:08;;;;;;;43.70;25.93;;;3.50;85.40;;;;;;5090600;28;20054;-79
2021/01/05 08:12:34;;;;;;;48.90;28.47;;;3.40;85.40;;;;;;5091182;28;20460;-78
2021/01/05 08:15:00;;;;;;;50.73;27.93;;;3.50;85.90;;;;;;5090968;28;20081;-77
2021/01/05 08:17:25;;;;;;;38.80;23.57;;;3.50;85.50;;;;;;5090873;28;20120;-79
2021/01/05 08:19:51;;;;;;;43.47;25.87;;;3.50;85.90;;;;;;5073211;28;20032;-78
2021/01/05 08:22:17;;;;;;;41.70;24.77;;;3.50;85.70;;;;;;5089533;28;20036;-78
2021/01/05 08:24:42;;;;;;;44.40;25.73;;;3.50;85.20;;;;;;5091939;28;20030;-78
2021/01/05 08:27:10;;;;;;;43.43;24.57;;;3.50;85.50;;;;;;5046583;28;20530;-78
2021/01/05 08:29:36;;;;;;;44.60;24.93;;;3.50;85.40;;;;;;5089595;28;20039;-78
2021/01/05 08:32:03;;;;;;;47.20;25.80;;;3.50;85.30;;;;;;5088681;28;20101;-78
2021/01/05 08:34:28;;;;;;;43.17;25.03;;;3.40;85.40;;;;;;5067924;28;20437;-76
2021/01/05 08:36:54;;;;;;;42.10;24.13;;;3.40;85.40;;;;;;5083221;28;20035;-79
2021/01/05 08:39:20;;;;;;;42.47;24.67;;;3.30;85.40;;;;;;5090355;28;20039;-78
2021/01/05 08:41:51;;;;;;;47.13;27.13;;;3.40;85.90;;;;;;5071143;28;20035;-78
2021/01/05 08:44:16;;;;;;;44.63;25.60;;;3.40;85.70;;;;;;5089846;28;20101;-77
2021/01/05 08:46:43;;;;;;;49.13;27.03;;;3.40;85.80;;;;;;5072946;28;20439;-78
2021/01/05 08:49:08;;;;;;;50.53;27.03;;;3.40;85.40;;;;;;5088964;28;20111;-78
2021/01/05 08:51:34;;;;;;;52.40;29.37;;;3.50;85.50;;;;;;5084022;28;20103;-78
2021/01/05 08:54:00;;;;;;;62.23;33.03;;;3.60;85.50;;;;;;5072017;28;20028;-76
2021/01/05 08:56:27;;;;;;;56.57;31.47;;;3.60;85.00;;;;;;5088585;28;20024;-78
2021/01/05 08:58:53;;;;;;;54.00;30.10;;;3.60;85.60;;;;;;5088089;28;20032;-77
2021/01/05 09:01:19;;;;;;;47.37;27.33;;;3.60;85.10;;;;;;5070622;28;20052;-79
2021/01/05 09:03:45;;;;;;;49.27;27.57;;;3.80;85.20;;;;;;5089746;28;20084;-77
2021/01/05 09:06:12;;;;;;;50.50;26.83;;;3.70;84.90;;;;;;5064574;28;20032;-78
2021/01/05 09:08:39;;;;;;;48.13;27.77;;;3.70;84.80;;;;;;5091170;28;20028;-77
2021/01/05 09:11:18;;;;;;;47.63;26.07;;;3.60;84.60;;;;;;5086094;28;20079;-78
2021/01/05 09:13:43;;;;;;;62.93;33.53;;;3.60;85.30;;;;;;5087279;28;20106;-78
2021/01/05 09:16:09;;;;;;;51.47;27.93;;;3.60;85.10;;;;;;5091164;28;20161;-77
2021/01/05 09:18:34;;;;;;;46.17;25.90;;;3.70;84.80;;;;;;5090625;28;20024;-78
2021/01/05 09:21:03;;;;;;;49.90;26.33;;;3.70;84.40;;;;;;5086913;28;20032;-77
2021/01/05 09:23:30;;;;;;;52.03;27.90;;;3.70;84.40;;;;;;5074614;28;20455;-78
2021/01/05 09:25:56;;;;;;;44.97;25.90;;;3.70;84.50;;;;;;5089163;28;20113;-78
2021/01/05 09:28:26;;;;;;;60.33;31.80;;;3.70;84.30;;;;;;5071415;28;20071;-77
2021/01/05 09:30:54;;;;;;;59.00;32.47;;;3.60;84.40;;;;;;5093280;28;20119;-79
2021/01/05 09:33:20;;;;;;;48.53;27.47;;;3.80;84.70;;;;;;5091616;28;20028;-78
2021/01/05 09:35:48;;;;;;;58.33;34.20;;;3.90;84.40;;;;;;5093945;28;20023;-78
2021/01/05 09:38:13;;;;;;;60.33;33.73;;;3.90;84.40;;;;;;5088507;28;20020;-78
2021/01/05 09:40:40;;;;;;;43.77;25.07;;;4.00;84.30;;;;;;5087347;28;20050;-78
2021/01/05 09:43:09;;;;;;;49.03;28.37;;;4.00;83.50;;;;;;5086081;28;20093;-78
2021/01/05 09:45:35;;;;;;;46.67;27.07;;;3.90;83.60;;;;;;5084411;28;20020;-79
2021/01/05 09:48:12;;;;;;;40.70;25.13;;;4.10;84.30;;;;;;5071560;28;20039;-78
2021/01/05 09:50:42;;;;;;;42.97;27.10;;;4.10;83.80;;;;;;5087221;28;20024;-79
2021/01/05 09:53:09;;;;;;;40.93;24.13;;;4.10;83.60;;;;;;5094712;28;20024;-78
2021/01/05 09:55:35;;;;;;;38.23;23.83;;;4.10;83.80;;;;;;5094718;28;20036;-79
2021/01/05 09:58:01;;;;;;;37.27;22.77;;;4.10;83.30;;;;;;5059859;28;20101;-78
2021/01/05 10:00:27;;;;;;;39.50;22.80;;;4.00;83.00;;;;;;5082988;28;20052;-79
2021/01/05 10:02:53;;;;;;;55.43;32.43;;;3.90;82.90;;;;;;5086358;28;20032;-78
2021/01/05 10:05:19;;;;;;;37.03;22.10;;;3.80;83.70;;;;;;5091829;28;20855;-77
2021/01/05 10:07:45;;;;;;;41.27;23.37;;;4.00;83.70;;;;;;5091422;28;20020;-78
2021/01/05 10:10:21;;;;;;;43.30;24.80;;;3.90;83.80;;;;;;5088862;28;20028;-79
2021/01/05 10:12:47;;;;;;;46.17;27.50;;;4.00;84.20;;;;;;5089903;28;20032;-77
2021/01/05 10:15:14;;;;;;;34.80;21.30;;;4.00;84.00;;;;;;5085931;28;20153;-77
2021/01/05 10:17:39;;;;;;;38.13;22.37;;;4.00;83.90;;;;;;5093284;28;20019;-76
2021/01/05 10:20:08;;;;;;;42.77;24.83;;;3.90;83.80;;;;;;5090269;28;20036;-78
2021/01/05 10:22:34;;;;;;;39.27;23.83;;;3.90;83.90;;;;;;5087258;28;20032;-77
2021/01/05 10:24:59;;;;;;;39.13;22.50;;;4.10;83.80;;;;;;5073857;28;20028;-75
2021/01/05 10:27:25;;;;;;;35.33;21.10;;;4.10;83.40;;;;;;5075521;28;20020;-77
2021/01/05 10:29:52;;;;;;;36.03;21.37;;;3.90;82.90;;;;;;5058946;28;20032;-78
2021/01/05 10:32:18;;;;;;;35.37;21.00;;;3.90;83.60;;;;;;5089400;28;20620;-78
2021/01/05 10:34:43;;;;;;;42.83;24.03;;;4.00;84.10;;;;;;5090424;28;20057;-77
2021/01/05 10:37:10;;;;;;;40.90;24.57;;;4.20;84.10;;;;;;5073081;28;20028;-77
2021/01/05 10:39:36;;;;;;;39.93;25.47;;;4.20;83.60;;;;;;5091681;28;20032;-78
2021/01/05 10:42:04;;;;;;;41.13;23.70;;;4.30;84.20;;;;;;5091604;28;20040;-77
2021/01/05 10:44:30;;;;;;;52.47;26.27;;;4.30;82.90;;;;;;5090189;28;20020;-78
2021/01/05 10:46:57;;;;;;;53.60;27.50;;;4.20;82.60;;;;;;5093600;28;20561;-78
2021/01/05 10:49:23;;;;;;;68.63;32.50;;;4.10;82.70;;;;;;5091294;28;20550;-78
2021/01/05 10:51:50;;;;;;;50.77;27.40;;;4.10;83.20;;;;;;5091374;28;20042;-78
2021/01/05 10:54:18;;;;;;;40.87;21.90;;;4.30;83.30;;;;;;5091400;28;20028;-78
2021/01/05 10:56:47;;;;;;;37.93;22.40;;;4.20;82.30;;;;;;5076229;28;20024;-79
2021/01/05 10:59:13;;;;;;;37.00;22.57;;;4.00;82.60;;;;;;5091440;28;20028;-79
2021/01/05 11:01:39;;;;;;;38.10;22.83;;;4.10;83.30;;;;;;5071544;28;20403;-78
2021/01/05 11:04:05;;;;;;;37.80;22.33;;;4.00;83.10;;;;;;5090732;28;20020;-78
2021/01/05 11:06:30;;;;;;;38.07;22.53;;;4.00;83.00;;;;;;5056748;28;20053;-78
2021/01/05 11:08:56;;;;;;;35.30;21.10;;;4.20;83.90;;;;;;5091975;28;20116;-78
2021/01/05 11:11:22;;;;;;;39.07;23.13;;;4.30;83.30;;;;;;5073035;28;20957;-75
2021/01/05 11:13:48;;;;;;;36.77;22.43;;;4.30;83.40;;;;;;5091839;28;20054;-78
2021/01/05 11:16:13;;;;;;;35.63;21.93;;;4.50;83.50;;;;;;5066212;28;20471;-78
2021/01/05 11:18:42;;;;;;;33.40;20.33;;;4.40;83.40;;;;;;5083091;28;20081;-77
2021/01/05 11:21:13;;;;;;;34.70;20.17;;;4.40;82.50;;;;;;5081032;28;20046;-76
2021/01/05 11:23:40;;;;;;;34.83;21.40;;;4.30;82.70;;;;;;5082038;28;20104;-77
2021/01/05 11:26:07;;;;;;;36.57;20.20;;;4.30;82.90;;;;;;5084572;28;20028;-78
2021/01/05 11:28:33;;;;;;;37.23;21.60;;;4.40;82.60;;;;;;5091777;28;20028;-78
2021/01/05 11:30:58;;;;;;;37.87;21.50;;;4.30;82.90;;;;;;5074452;28;20387;-77
2021/01/05 11:33:24;;;;;;;36.70;20.83;;;4.20;82.70;;;;;;5088263;28;20147;-77
2021/01/05 11:35:50;;;;;;;37.20;22.10;;;4.30;83.10;;;;;;5072747;28;20334;-78
2021/01/05 11:38:15;;;;;;;34.90;20.33;;;4.30;82.90;;;;;;5090841;28;20380;-77
2021/01/05 11:40:43;;;;;;;36.63;20.47;;;4.40;82.90;;;;;;5091458;28;20416;-78
2021/01/05 11:43:08;;;;;;;36.67;20.87;;;4.20;82.40;;;;;;5088783;28;20020;-78
2021/01/05 11:45:34;;;;;;;35.60;21.10;;;4.10;82.60;;;;;;5069761;28;20034;-78
2021/01/05 11:48:00;;;;;;;44.60;23.87;;;4.00;82.70;;;;;;5082578;28;20170;-77
2021/01/05 11:50:25;;;;;;;50.93;26.37;;;4.10;83.20;;;;;;5062518;28;20652;-78
2021/01/05 11:52:51;;;;;;;43.27;25.33;;;4.00;82.50;;;;;;5063169;28;20562;-77
2021/01/05 11:55:18;;;;;;;39.57;21.70;;;4.10;82.80;;;;;;5078412;28;20043;-78
2021/01/05 11:57:44;;;;;;;34.53;20.20;;;4.20;83.50;;;;;;5060213;28;20131;-77
2021/01/05 12:00:11;;;;;;;37.37;22.13;;;4.20;82.80;;;;;;5061358;28;20051;-76
2021/01/05 12:02:38;;;;;;;35.37;22.00;;;4.10;82.50;;;;;;5086268;28;20024;-75
2021/01/05 12:05:04;;;;;;;35.20;21.93;;;4.00;82.90;;;;;;5054228;28;20040;-77
2021/01/05 12:07:30;;;;;;;35.50;21.77;;;4.00;82.70;;;;;;5086886;28;20032;-76
2021/01/05 12:09:55;;;;;;;38.20;21.60;;;3.90;82.70;;;;;;5056615;28;20055;-78
2021/01/05 12:12:21;;;;;;;33.60;20.27;;;4.00;82.90;;;;;;5085887;28;20066;-77
2021/01/05 12:14:47;;;;;;;33.60;20.67;;;3.90;82.80;;;;;;5083378;28;20062;-77
2021/01/05 12:17:13;;;;;;;32.10;19.80;;;4.00;82.90;;;;;;5079986;28;20150;-78
2021/01/05 12:19:43;;;;;;;34.87;20.37;;;4.00;83.00;;;;;;5070587;28;20031;-79
2021/01/05 12:22:11;;;;;;;32.97;19.17;;;4.10;82.90;;;;;;5072276;28;20040;-77
2021/01/05 12:24:38;;;;;;;31.63;18.70;;;4.20;82.90;;;;;;5101894;28;20067;-78
2021/01/05 12:27:05;;;;;;;32.97;18.73;;;4.10;82.30;;;;;;5073881;28;20028;-78
2021/01/05 12:29:37;;;;;;;34.23;20.00;;;3.90;82.60;;;;;;5089627;28;20107;-77
2021/01/05 12:32:14;;;;;;;30.10;19.00;;;3.90;83.00;;;;;;5089829;28;20043;-78
2021/01/05 12:34:45;;;;;;;32.67;19.10;;;4.00;83.10;;;;;;5088676;28;20428;-79
2021/01/05 12:37:14;;;;;;;34.30;20.47;;;4.00;83.40;;;;;;5079157;28;20020;-77
2021/01/05 12:39:40;;;;;;;32.10;19.37;;;4.10;83.10;;;;;;5077266;28;20072;-78
2021/01/05 12:42:11;;;;;;;30.67;18.90;;;4.20;83.00;;;;;;5056006;28;20123;-78
2021/01/05 12:44:37;;;;;;;34.87;19.93;;;4.10;82.80;;;;;;5088783;28;20031;-78
2021/01/05 12:47:03;;;;;;;33.47;19.90;;;4.20;82.80;;;;;;5090667;28;20032;-79
2021/01/05 12:49:29;;;;;;;32.40;19.17;;;4.20;82.70;;;;;;5092189;28;20160;-79
2021/01/05 12:51:54;;;;;;;31.57;19.97;;;4.10;82.70;;;;;;5087036;28;20365;-78